sensor_id;sensor_type;location;lat;lon;timestamp;pressure;altitude;pressure_sealevel;temperature;humidity
50774;BME280;36745;48.544;8.918;2023-05-01T00:03:12;97269.66;;;10.39;79.84
50774;BME280;36745;48.544;8.918;2023-05-01T00:06:32;97260.31;;;10.49;79.07
50774;BME280;36745;48.544;8.918;2023-05-01T00:09:52;97254.56;;;10.57;78.99
50774;BME280;36745;48.544;8.918;2023-05-01T00:13:12;97252.13;;;10.59;79.76
50774;BME280;36745;48.544;8.918;2023-05-01T00:16:32;97244.63;;;10.72;78.96
50774;BME280;36745;48.544;8.918;2023-05-01T00:19:54;97242.66;;;10.60;79.57
50774;BME280;36745;48.544;8.918;2023-05-01T00:23:14;97240.78;;;10.57;80.79
50774;BME280;36745;48.544;8.918;2023-05-01T00:26:34;97244.19;;;10.61;80.01
50774;BME280;36745;48.544;8.918;2023-05-01T00:29:54;97242.22;;;10.61;80.43
50774;BME280;36745;48.544;8.918;2023-05-01T00:33:14;97235.38;;;10.66;81.15
50774;BME280;36745;48.544;8.918;2023-05-01T00:36:34;97238.78;;;10.70;80.98
50774;BME280;36745;48.544;8.918;2023-05-01T00:39:54;97223.34;;;10.72;80.85
50774;BME280;36745;48.544;8.918;2023-05-01T00:43:14;97225.69;;;10.74;80.90
50774;BME280;36745;48.544;8.918;2023-05-01T00:46:34;97222.56;;;10.72;82.10
50774;BME280;36745;48.544;8.918;2023-05-01T00:49:54;97215.38;;;10.74;81.74
50774;BME280;36745;48.544;8.918;2023-05-01T00:53:14;97210.13;;;10.67;81.74
50774;BME280;36745;48.544;8.918;2023-05-01T00:56:33;97205.59;;;10.61;81.96
50774;BME280;36745;48.544;8.918;2023-05-01T00:59:53;97201.09;;;10.67;81.05
50774;BME280;36745;48.544;8.918;2023-05-01T01:03:13;97209.34;;;10.67;81.35
50774;BME280;36745;48.544;8.918;2023-05-01T01:10:34;97200.28;;;10.79;79.49
50774;BME280;36745;48.544;8.918;2023-05-01T01:14:17;97188.84;;;10.68;81.05
50774;BME280;36745;48.544;8.918;2023-05-01T01:17:51;97186.44;;;10.57;82.17
50774;BME280;36745;48.544;8.918;2023-05-01T01:21:17;97179.38;;;10.56;82.40
50774;BME280;36745;48.544;8.918;2023-05-01T01:35:13;97181.72;;;10.45;83.55
50774;BME280;36745;48.544;8.918;2023-05-01T01:38:45;97177.75;;;10.46;84.00
50774;BME280;36745;48.544;8.918;2023-05-01T01:42:08;97182.25;;;10.52;83.73
50774;BME280;36745;48.544;8.918;2023-05-01T01:48:55;97175.28;;;10.48;83.88
50774;BME280;36745;48.544;8.918;2023-05-01T01:52:16;97175.19;;;10.51;83.55
50774;BME280;36745;48.544;8.918;2023-05-01T01:55:38;97174.09;;;10.49;83.65
50774;BME280;36745;48.544;8.918;2023-05-01T01:59:00;97174.84;;;10.49;83.87
50774;BME280;36745;48.544;8.918;2023-05-01T02:02:20;97173.00;;;10.46;83.53
50774;BME280;36745;48.544;8.918;2023-05-01T02:05:41;97169.91;;;10.44;83.97
50774;BME280;36745;48.544;8.918;2023-05-01T02:09:02;97168.16;;;10.38;84.25
50774;BME280;36745;48.544;8.918;2023-05-01T02:12:25;97160.00;;;10.34;84.13
50774;BME280;36745;48.544;8.918;2023-05-01T02:15:46;97156.91;;;10.32;84.76
50774;BME280;36745;48.544;8.918;2023-05-01T02:19:07;97150.28;;;10.42;83.50
50774;BME280;36745;48.544;8.918;2023-05-01T02:22:27;97158.88;;;10.44;83.14
50774;BME280;36745;48.544;8.918;2023-05-01T02:25:49;97154.16;;;10.45;84.16
50774;BME280;36745;48.544;8.918;2023-05-01T02:29:10;97147.22;;;10.40;83.89
50774;BME280;36745;48.544;8.918;2023-05-01T02:32:30;97145.53;;;10.43;83.86
50774;BME280;36745;48.544;8.918;2023-05-01T02:35:50;97150.41;;;10.39;84.05
50774;BME280;36745;48.544;8.918;2023-05-01T02:39:10;97146.66;;;10.33;84.45
50774;BME280;36745;48.544;8.918;2023-05-01T02:42:31;97141.94;;;10.33;84.55
50774;BME280;36745;48.544;8.918;2023-05-01T02:45:52;97143.81;;;10.36;85.30
50774;BME280;36745;48.544;8.918;2023-05-01T02:49:15;97136.84;;;10.44;85.11
50774;BME280;36745;48.544;8.918;2023-05-01T02:52:36;97132.88;;;10.45;85.26
50774;BME280;36745;48.544;8.918;2023-05-01T02:55:56;97130.69;;;10.40;85.46
50774;BME280;36745;48.544;8.918;2023-05-01T02:59:16;97132.97;;;10.42;85.34
50774;BME280;36745;48.544;8.918;2023-05-01T03:02:36;97129.47;;;10.41;85.44
50774;BME280;36745;48.544;8.918;2023-05-01T03:05:55;97119.00;;;10.36;85.63
50774;BME280;36745;48.544;8.918;2023-05-01T03:09:15;97121.09;;;10.32;86.16
50774;BME280;36745;48.544;8.918;2023-05-01T03:12:35;97121.31;;;10.38;86.10
50774;BME280;36745;48.544;8.918;2023-05-01T03:15:55;97127.22;;;10.49;85.63
50774;BME280;36745;48.544;8.918;2023-05-01T03:19:15;97111.59;;;10.46;86.50
50774;BME280;36745;48.544;8.918;2023-05-01T03:22:35;97114.22;;;10.49;86.59
50774;BME280;36745;48.544;8.918;2023-05-01T03:25:54;97120.06;;;10.51;86.70
50774;BME280;36745;48.544;8.918;2023-05-01T03:29:15;97112.69;;;10.48;85.80
50774;BME280;36745;48.544;8.918;2023-05-01T03:32:35;97101.56;;;10.39;86.36
50774;BME280;36745;48.544;8.918;2023-05-01T03:36:02;97109.50;;;10.37;87.06
50774;BME280;36745;48.544;8.918;2023-05-01T03:39:22;97103.53;;;10.51;86.57
50774;BME280;36745;48.544;8.918;2023-05-01T03:42:42;97104.31;;;10.52;87.00
50774;BME280;36745;48.544;8.918;2023-05-01T03:46:02;97103.00;;;10.44;87.92
50774;BME280;36745;48.544;8.918;2023-05-01T03:49:21;97094.53;;;10.38;88.42
50774;BME280;36745;48.544;8.918;2023-05-01T03:52:41;97102.47;;;10.36;88.76
50774;BME280;36745;48.544;8.918;2023-05-01T03:56:01;97103.78;;;10.44;89.25
50774;BME280;36745;48.544;8.918;2023-05-01T03:59:22;97104.91;;;10.34;89.78
50774;BME280;36745;48.544;8.918;2023-05-01T04:02:42;97111.19;;;10.35;90.24
50774;BME280;36745;48.544;8.918;2023-05-01T04:06:02;97100.25;;;10.44;90.01
50774;BME280;36745;48.544;8.918;2023-05-01T04:09:21;97108.72;;;10.37;90.87
50774;BME280;36745;48.544;8.918;2023-05-01T04:12:41;97111.81;;;10.39;91.61
50774;BME280;36745;48.544;8.918;2023-05-01T04:16:01;97106.19;;;10.42;92.01
50774;BME280;36745;48.544;8.918;2023-05-01T04:19:21;97116.13;;;10.40;92.55
50774;BME280;36745;48.544;8.918;2023-05-01T04:22:41;97107.09;;;10.39;92.23
50774;BME280;36745;48.544;8.918;2023-05-01T04:26:00;97112.59;;;10.39;93.39
50774;BME280;36745;48.544;8.918;2023-05-01T04:29:20;97113.50;;;10.36;93.57
50774;BME280;36745;48.544;8.918;2023-05-01T04:32:40;97120.88;;;10.39;93.79
50774;BME280;36745;48.544;8.918;2023-05-01T04:36:00;97112.13;;;10.53;91.56
50774;BME280;36745;48.544;8.918;2023-05-01T04:39:20;97112.78;;;10.58;90.46
50774;BME280;36745;48.544;8.918;2023-05-01T04:42:53;97119.19;;;10.42;92.68
50774;BME280;36745;48.544;8.918;2023-05-01T04:49:56;97122.19;;;10.35;94.27
50774;BME280;36745;48.544;8.918;2023-05-01T04:53:16;97123.97;;;10.41;95.38
50774;BME280;36745;48.544;8.918;2023-05-01T04:56:36;97119.19;;;10.55;94.31
50774;BME280;36745;48.544;8.918;2023-05-01T04:59:56;97119.19;;;10.55;94.21
50774;BME280;36745;48.544;8.918;2023-05-01T05:03:15;97118.75;;;10.56;95.10
50774;BME280;36745;48.544;8.918;2023-05-01T05:06:37;97121.69;;;10.62;93.62
50774;BME280;36745;48.544;8.918;2023-05-01T05:09:57;97118.31;;;10.58;93.54
50774;BME280;36745;48.544;8.918;2023-05-01T05:13:16;97125.47;;;10.55;93.91
50774;BME280;36745;48.544;8.918;2023-05-01T05:16:36;97126.56;;;10.58;93.43
50774;BME280;36745;48.544;8.918;2023-05-01T05:19:56;97134.53;;;10.43;96.05
50774;BME280;36745;48.544;8.918;2023-05-01T05:23:16;97135.41;;;10.40;97.04
50774;BME280;36745;48.544;8.918;2023-05-01T05:26:35;97130.03;;;10.36;96.43
50774;BME280;36745;48.544;8.918;2023-05-01T05:29:56;97126.03;;;10.37;96.85
50774;BME280;36745;48.544;8.918;2023-05-01T05:33:16;97130.03;;;10.36;97.24
50774;BME280;36745;48.544;8.918;2023-05-01T05:36:36;97134.44;;;10.34;98.16
50774;BME280;36745;48.544;8.918;2023-05-01T05:39:56;97132.00;;;10.36;97.94
50774;BME280;36745;48.544;8.918;2023-05-01T05:43:16;97129.78;;;10.43;98.26
50774;BME280;36745;48.544;8.918;2023-05-01T05:46:38;97136.50;;;10.42;98.43
50774;BME280;36745;48.544;8.918;2023-05-01T05:50:01;97129.69;;;10.47;98.23
50774;BME280;36745;48.544;8.918;2023-05-01T05:53:21;97131.97;;;10.48;98.38
50774;BME280;36745;48.544;8.918;2023-05-01T05:56:41;97127.47;;;10.42;99.07
50774;BME280;36745;48.544;8.918;2023-05-01T06:00:02;97134.16;;;10.53;98.68
50774;BME280;36745;48.544;8.918;2023-05-01T06:03:23;97133.41;;;10.53;99.12
50774;BME280;36745;48.544;8.918;2023-05-01T06:06:43;97131.53;;;10.63;98.35
50774;BME280;36745;48.544;8.918;2023-05-01T06:10:03;97137.09;;;10.72;98.79
50774;BME280;36745;48.544;8.918;2023-05-01T06:13:23;97132.34;;;10.85;97.96
50774;BME280;36745;48.544;8.918;2023-05-01T06:16:43;97129.66;;;10.94;97.00
50774;BME280;36745;48.544;8.918;2023-05-01T06:20:03;97131.44;;;10.88;97.25
50774;BME280;36745;48.544;8.918;2023-05-01T06:23:24;97135.28;;;10.90;97.33
50774;BME280;36745;48.544;8.918;2023-05-01T06:26:44;97135.94;;;10.94;98.35
50774;BME280;36745;48.544;8.918;2023-05-01T06:30:04;97137.22;;;11.03;98.67
50774;BME280;36745;48.544;8.918;2023-05-01T06:33:25;97140.44;;;11.01;97.92
50774;BME280;36745;48.544;8.918;2023-05-01T06:36:45;97134.09;;;11.13;97.28
50774;BME280;36745;48.544;8.918;2023-05-01T06:40:06;97143.03;;;11.17;96.88
50774;BME280;36745;48.544;8.918;2023-05-01T06:43:26;97137.13;;;11.28;97.73
50774;BME280;36745;48.544;8.918;2023-05-01T06:46:49;97145.50;;;11.46;96.37
50774;BME280;36745;48.544;8.918;2023-05-01T06:50:09;97144.63;;;11.49;96.03
50774;BME280;36745;48.544;8.918;2023-05-01T06:53:29;97138.63;;;11.51;96.41
50774;BME280;36745;48.544;8.918;2023-05-01T06:56:49;97147.25;;;11.53;96.61
50774;BME280;36745;48.544;8.918;2023-05-01T07:00:09;97143.75;;;11.61;96.20
50774;BME280;36745;48.544;8.918;2023-05-01T07:03:29;97142.72;;;11.68;95.65
50774;BME280;36745;48.544;8.918;2023-05-01T07:06:49;97145.03;;;11.69;95.81
50774;BME280;36745;48.544;8.918;2023-05-01T07:10:09;97143.47;;;11.81;95.03
50774;BME280;36745;48.544;8.918;2023-05-01T07:13:28;97139.66;;;11.66;95.80
50774;BME280;36745;48.544;8.918;2023-05-01T07:16:49;97143.66;;;11.65;95.40
50774;BME280;36745;48.544;8.918;2023-05-01T07:20:09;97147.28;;;11.62;96.49
50774;BME280;36745;48.544;8.918;2023-05-01T07:23:30;97135.66;;;11.67;96.39
50774;BME280;36745;48.544;8.918;2023-05-01T07:26:49;97144.94;;;11.73;97.51
50774;BME280;36745;48.544;8.918;2023-05-01T07:30:10;97134.00;;;11.91;96.14
50774;BME280;36745;48.544;8.918;2023-05-01T07:33:29;97136.44;;;11.89;96.29
50774;BME280;36745;48.544;8.918;2023-05-01T07:36:49;97133.72;;;11.98;96.59
50774;BME280;36745;48.544;8.918;2023-05-01T07:40:10;97138.41;;;12.19;96.16
50774;BME280;36745;48.544;8.918;2023-05-01T07:43:29;97128.88;;;12.20;93.89
50774;BME280;36745;48.544;8.918;2023-05-01T07:46:49;97128.25;;;12.16;95.46
50774;BME280;36745;48.544;8.918;2023-05-01T07:50:10;97132.72;;;12.23;94.68
50774;BME280;36745;48.544;8.918;2023-05-01T07:53:30;97131.38;;;12.37;94.53
50774;BME280;36745;48.544;8.918;2023-05-01T07:56:50;97131.44;;;12.46;93.97
50774;BME280;36745;48.544;8.918;2023-05-01T08:00:10;97131.47;;;12.73;93.23
50774;BME280;36745;48.544;8.918;2023-05-01T08:03:30;97125.78;;;12.68;91.94
50774;BME280;36745;48.544;8.918;2023-05-01T08:06:50;97131.94;;;12.81;91.66
50774;BME280;36745;48.544;8.918;2023-05-01T08:10:10;97135.63;;;12.87;91.17
50774;BME280;36745;48.544;8.918;2023-05-01T08:13:30;97131.94;;;13.08;90.93
50774;BME280;36745;48.544;8.918;2023-05-01T08:16:50;97126.59;;;13.14;89.81
50774;BME280;36745;48.544;8.918;2023-05-01T08:20:13;97126.56;;;13.50;90.89
50774;BME280;36745;48.544;8.918;2023-05-01T08:23:33;97126.34;;;13.72;90.20
50774;BME280;36745;48.544;8.918;2023-05-01T08:26:52;97129.94;;;13.63;86.21
50774;BME280;36745;48.544;8.918;2023-05-01T08:30:13;97121.63;;;13.45;85.09
50774;BME280;36745;48.544;8.918;2023-05-01T08:33:32;97123.81;;;13.41;86.29
50774;BME280;36745;48.544;8.918;2023-05-01T08:36:52;97128.47;;;13.86;88.19
50774;BME280;36745;48.544;8.918;2023-05-01T08:40:13;97127.06;;;13.91;86.00
50774;BME280;36745;48.544;8.918;2023-05-01T08:43:33;97121.09;;;13.83;83.54
50774;BME280;36745;48.544;8.918;2023-05-01T08:50:28;97123.81;;;14.01;84.68
50774;BME280;36745;48.544;8.918;2023-05-01T08:53:48;97123.19;;;14.39;85.50
50774;BME280;36745;48.544;8.918;2023-05-01T08:57:11;97120.75;;;14.41;83.36
50774;BME280;36745;48.544;8.918;2023-05-01T09:00:31;97119.44;;;14.51;82.85
50774;BME280;36745;48.544;8.918;2023-05-01T09:03:52;97126.09;;;14.45;82.81
50774;BME280;36745;48.544;8.918;2023-05-01T09:07:13;97122.69;;;14.50;82.93
50774;BME280;36745;48.544;8.918;2023-05-01T09:10:33;97116.91;;;14.62;82.83
50774;BME280;36745;48.544;8.918;2023-05-01T09:13:56;97114.22;;;14.92;83.42
50774;BME280;36745;48.544;8.918;2023-05-01T09:17:17;97116.31;;;15.21;82.31
50774;BME280;36745;48.544;8.918;2023-05-01T09:20:38;97115.72;;;14.78;80.67
50774;BME280;36745;48.544;8.918;2023-05-01T09:23:58;97124.16;;;14.84;80.43
50774;BME280;36745;48.544;8.918;2023-05-01T09:27:18;97118.69;;;15.13;81.24
50774;BME280;36745;48.544;8.918;2023-05-01T09:30:38;97110.66;;;15.15;81.24
50774;BME280;36745;48.544;8.918;2023-05-01T09:34:00;97108.50;;;15.48;80.53
50774;BME280;36745;48.544;8.918;2023-05-01T09:37:26;97116.28;;;15.74;79.75
50774;BME280;36745;48.544;8.918;2023-05-01T09:40:47;97122.22;;;15.67;78.35
50774;BME280;36745;48.544;8.918;2023-05-01T09:44:16;97119.38;;;15.76;78.66
50774;BME280;36745;48.544;8.918;2023-05-01T09:47:37;97112.84;;;15.64;77.15
50774;BME280;36745;48.544;8.918;2023-05-01T09:50:58;97107.06;;;15.82;78.45
50774;BME280;36745;48.544;8.918;2023-05-01T09:54:18;97111.84;;;16.11;79.09
50774;BME280;36745;48.544;8.918;2023-05-01T09:57:39;97111.28;;;16.07;77.46
50774;BME280;36745;48.544;8.918;2023-05-01T10:01:01;97110.81;;;15.94;74.68
50774;BME280;36745;48.544;8.918;2023-05-01T10:04:33;97107.97;;;15.74;74.86
50774;BME280;36745;48.544;8.918;2023-05-01T10:08:00;97111.31;;;15.78;75.52
50774;BME280;36745;48.544;8.918;2023-05-01T10:11:24;97110.91;;;15.85;75.82
50774;BME280;36745;48.544;8.918;2023-05-01T10:14:51;97103.06;;;15.69;74.18
50774;BME280;36745;48.544;8.918;2023-05-01T10:18:13;97108.34;;;15.52;75.00
50774;BME280;36745;48.544;8.918;2023-05-01T10:21:32;97111.09;;;15.37;74.93
50774;BME280;36745;48.544;8.918;2023-05-01T10:24:52;97116.44;;;15.26;74.90
50774;BME280;36745;48.544;8.918;2023-05-01T10:28:12;97122.13;;;15.08;76.25
50774;BME280;36745;48.544;8.918;2023-05-01T10:31:32;97137.19;;;14.92;77.74
50774;BME280;36745;48.544;8.918;2023-05-01T10:35:20;97131.84;;;14.89;78.19
50774;BME280;36745;48.544;8.918;2023-05-01T10:38:42;97133.72;;;14.83;78.61
50774;BME280;36745;48.544;8.918;2023-05-01T10:42:07;97130.75;;;14.86;78.67
50774;BME280;36745;48.544;8.918;2023-05-01T10:45:32;97132.97;;;14.82;79.41
50774;BME280;36745;48.544;8.918;2023-05-01T10:48:52;97133.72;;;14.83;80.02
50774;BME280;36745;48.544;8.918;2023-05-01T10:52:12;97131.59;;;14.78;80.97
50774;BME280;36745;48.544;8.918;2023-05-01T10:55:34;97134.00;;;14.85;80.23
50774;BME280;36745;48.544;8.918;2023-05-01T10:58:59;97128.09;;;14.92;80.30
50774;BME280;36745;48.544;8.918;2023-05-01T11:02:22;97127.09;;;15.04;80.07
50774;BME280;36745;48.544;8.918;2023-05-01T11:09:39;97126.44;;;15.09;78.92
50774;BME280;36745;48.544;8.918;2023-05-01T11:12:59;97108.56;;;15.25;79.20
50774;BME280;36745;48.544;8.918;2023-05-01T11:20:05;97103.84;;;15.55;77.63
50774;BME280;36745;48.544;8.918;2023-05-01T11:23:25;97106.50;;;15.93;78.27
50774;BME280;36745;48.544;8.918;2023-05-01T11:26:46;97098.84;;;16.37;78.24
50774;BME280;36745;48.544;8.918;2023-05-01T11:30:07;97095.19;;;16.31;73.88
50774;BME280;36745;48.544;8.918;2023-05-01T11:33:27;97091.34;;;16.44;73.83
50774;BME280;36745;48.544;8.918;2023-05-01T11:36:51;97089.19;;;16.53;72.01
50774;BME280;36745;48.544;8.918;2023-05-01T11:44:10;97086.41;;;16.53;69.26
50774;BME280;36745;48.544;8.918;2023-05-01T11:47:33;97093.41;;;16.28;69.27
50774;BME280;36745;48.544;8.918;2023-05-01T11:50:53;97089.22;;;16.18;68.50
50774;BME280;36745;48.544;8.918;2023-05-01T11:54:12;97083.22;;;16.25;70.46
50774;BME280;36745;48.544;8.918;2023-05-01T11:57:44;97077.44;;;16.44;69.95
50774;BME280;36745;48.544;8.918;2023-05-01T12:01:04;97073.78;;;16.37;67.29
50774;BME280;36745;48.544;8.918;2023-05-01T12:04:26;97071.25;;;16.54;68.61
50774;BME280;36745;48.544;8.918;2023-05-01T12:07:46;97066.41;;;16.69;68.62
50774;BME280;36745;48.544;8.918;2023-05-01T12:11:06;97064.66;;;16.72;67.42
50774;BME280;36745;48.544;8.918;2023-05-01T12:14:26;97062.88;;;16.89;67.50
50774;BME280;36745;48.544;8.918;2023-05-01T12:17:46;97057.13;;;16.98;66.51
50774;BME280;36745;48.544;8.918;2023-05-01T12:21:14;97054.09;;;16.76;64.28
50774;BME280;36745;48.544;8.918;2023-05-01T12:24:35;97050.72;;;16.92;64.99
50774;BME280;36745;48.544;8.918;2023-05-01T12:27:55;97046.06;;;17.30;65.91
50774;BME280;36745;48.544;8.918;2023-05-01T12:31:15;97045.19;;;17.44;64.77
50774;BME280;36745;48.544;8.918;2023-05-01T12:34:35;97046.59;;;17.34;63.33
50774;BME280;36745;48.544;8.918;2023-05-01T12:37:55;97047.16;;;17.38;64.39
50774;BME280;36745;48.544;8.918;2023-05-01T12:41:16;97048.47;;;17.68;63.34
50774;BME280;36745;48.544;8.918;2023-05-01T12:44:36;97048.91;;;17.61;61.33
50774;BME280;36745;48.544;8.918;2023-05-01T12:47:55;97035.66;;;17.56;60.76
50774;BME280;36745;48.544;8.918;2023-05-01T12:51:21;97035.47;;;17.34;60.80
50774;BME280;36745;48.544;8.918;2023-05-01T12:54:42;97034.13;;;17.55;61.91
50774;BME280;36745;48.544;8.918;2023-05-01T12:58:02;97034.25;;;17.66;61.37
50774;BME280;36745;48.544;8.918;2023-05-01T13:01:26;97037.19;;;17.57;60.95
50774;BME280;36745;48.544;8.918;2023-05-01T13:04:46;97041.69;;;17.49;61.27
50774;BME280;36745;48.544;8.918;2023-05-01T13:08:07;97042.78;;;16.85;62.16
50774;BME280;36745;48.544;8.918;2023-05-01T13:11:27;97048.34;;;16.24;64.67
50774;BME280;36745;48.544;8.918;2023-05-01T13:14:47;97042.63;;;15.99;65.97
50774;BME280;36745;48.544;8.918;2023-05-01T13:18:07;97050.06;;;15.72;67.57
50774;BME280;36745;48.544;8.918;2023-05-01T13:21:27;97054.66;;;15.61;68.02
50774;BME280;36745;48.544;8.918;2023-05-01T13:24:46;97067.97;;;15.27;68.87
50774;BME280;36745;48.544;8.918;2023-05-01T13:28:06;97073.69;;;15.24;75.10
50774;BME280;36745;48.544;8.918;2023-05-01T13:31:28;97081.59;;;14.87;77.26
50774;BME280;36745;48.544;8.918;2023-05-01T13:34:48;97073.69;;;14.70;79.10
50774;BME280;36745;48.544;8.918;2023-05-01T13:38:09;97071.25;;;14.63;79.43
50774;BME280;36745;48.544;8.918;2023-05-01T13:41:30;97073.38;;;14.68;80.35
50774;BME280;36745;48.544;8.918;2023-05-01T13:44:52;97071.50;;;14.75;80.04
50774;BME280;36745;48.544;8.918;2023-05-01T13:48:15;97071.44;;;14.84;79.62
50774;BME280;36745;48.544;8.918;2023-05-01T13:51:38;97070.13;;;14.94;79.44
50774;BME280;36745;48.544;8.918;2023-05-01T13:55:01;97072.50;;;15.01;78.40
50774;BME280;36745;48.544;8.918;2023-05-01T13:58:23;97069.91;;;14.59;77.84
50774;BME280;36745;48.544;8.918;2023-05-01T14:01:43;97062.28;;;14.68;79.08
50774;BME280;36745;48.544;8.918;2023-05-01T14:05:06;97070.34;;;14.66;79.61
50774;BME280;36745;48.544;8.918;2023-05-01T14:08:28;97065.28;;;14.41;78.93
50774;BME280;36745;48.544;8.918;2023-05-01T14:11:48;97067.03;;;14.53;80.87
50774;BME280;36745;48.544;8.918;2023-05-01T14:15:11;97069.16;;;14.58;85.68
50774;BME280;36745;48.544;8.918;2023-05-01T14:18:31;97093.84;;;14.56;86.17
50774;BME280;36745;48.544;8.918;2023-05-01T14:21:51;97118.50;;;14.54;84.43
50774;BME280;36745;48.544;8.918;2023-05-01T14:25:27;97139.13;;;14.53;84.70
50774;BME280;36745;48.544;8.918;2023-05-01T14:28:48;97134.69;;;13.63;84.40
50774;BME280;36745;48.544;8.918;2023-05-01T14:32:08;97138.53;;;13.01;84.67
50774;BME280;36745;48.544;8.918;2023-05-01T14:35:29;97129.47;;;12.92;84.81
50774;BME280;36745;48.544;8.918;2023-05-01T14:38:49;97129.34;;;12.95;86.47
50774;BME280;36745;48.544;8.918;2023-05-01T14:42:09;97123.34;;;13.06;89.08
50774;BME280;36745;48.544;8.918;2023-05-01T14:45:29;97136.25;;;13.09;89.94
50774;BME280;36745;48.544;8.918;2023-05-01T14:48:49;97137.06;;;13.28;87.19
50774;BME280;36745;48.544;8.918;2023-05-01T14:52:09;97129.97;;;13.27;85.07
50774;BME280;36745;48.544;8.918;2023-05-01T14:55:30;97130.28;;;13.20;85.08
50774;BME280;36745;48.544;8.918;2023-05-01T14:58:52;97126.28;;;13.21;85.42
50774;BME280;36745;48.544;8.918;2023-05-01T15:02:12;97122.88;;;13.08;86.90
50774;BME280;36745;48.544;8.918;2023-05-01T15:05:32;97125.03;;;12.94;86.36
50774;BME280;36745;48.544;8.918;2023-05-01T15:08:52;97113.03;;;12.79;89.17
50774;BME280;36745;48.544;8.918;2023-05-01T15:12:12;97122.56;;;12.87;89.39
50774;BME280;36745;48.544;8.918;2023-05-01T15:15:32;97125.66;;;12.98;91.29
50774;BME280;36745;48.544;8.918;2023-05-01T15:18:52;97125.69;;;13.17;92.32
50774;BME280;36745;48.544;8.918;2023-05-01T15:22:12;97131.53;;;13.28;89.22
50774;BME280;36745;48.544;8.918;2023-05-01T15:25:31;97131.53;;;13.28;89.45
50774;BME280;36745;48.544;8.918;2023-05-01T15:28:51;97130.75;;;13.36;89.25
50774;BME280;36745;48.544;8.918;2023-05-01T15:32:11;97123.81;;;13.41;88.98
50774;BME280;36745;48.544;8.918;2023-05-01T15:35:31;97121.19;;;13.47;89.28
50774;BME280;36745;48.544;8.918;2023-05-01T15:38:50;97118.84;;;13.63;92.45
50774;BME280;36745;48.544;8.918;2023-05-01T15:42:10;97133.34;;;14.00;91.70
50774;BME280;36745;48.544;8.918;2023-05-01T15:45:31;97131.03;;;14.08;89.12
50774;BME280;36745;48.544;8.918;2023-05-01T15:48:51;97128.25;;;14.08;89.58
50774;BME280;36745;48.544;8.918;2023-05-01T15:52:11;97128.22;;;14.17;89.34
50774;BME280;36745;48.544;8.918;2023-05-01T15:55:31;97138.69;;;14.13;89.51
50774;BME280;36745;48.544;8.918;2023-05-01T15:58:53;97124.25;;;14.09;90.96
50774;BME280;36745;48.544;8.918;2023-05-01T16:02:12;97134.25;;;14.06;91.06
50774;BME280;36745;48.544;8.918;2023-05-01T16:05:32;97134.25;;;14.06;89.91
50774;BME280;36745;48.544;8.918;2023-05-01T16:08:52;97128.63;;;13.92;89.17
50774;BME280;36745;48.544;8.918;2023-05-01T16:12:12;97123.53;;;13.90;89.40
50774;BME280;36745;48.544;8.918;2023-05-01T16:15:32;97123.66;;;13.96;89.62
50774;BME280;36745;48.544;8.918;2023-05-01T16:18:56;97135.63;;;14.11;91.70
50774;BME280;36745;48.544;8.918;2023-05-01T16:22:17;97124.78;;;14.22;91.86
50774;BME280;36745;48.544;8.918;2023-05-01T16:25:41;97135.63;;;14.11;91.30
50774;BME280;36745;48.544;8.918;2023-05-01T16:29:03;97144.53;;;14.15;91.21
50774;BME280;36745;48.544;8.918;2023-05-01T16:32:24;97148.25;;;14.12;91.11
50774;BME280;36745;48.544;8.918;2023-05-01T16:35:45;97148.56;;;14.05;91.10
50774;BME280;36745;48.544;8.918;2023-05-01T16:39:20;97169.56;;;13.97;90.62
50774;BME280;36745;48.544;8.918;2023-05-01T16:42:40;97156.34;;;13.92;91.84
50774;BME280;36745;48.544;8.918;2023-05-01T16:46:01;97170.03;;;13.86;92.35
50774;BME280;36745;48.544;8.918;2023-05-01T16:49:23;97172.63;;;13.99;92.87
50774;BME280;36745;48.544;8.918;2023-05-01T16:52:43;97180.28;;;14.04;91.00
50774;BME280;36745;48.544;8.918;2023-05-01T16:56:03;97180.94;;;13.99;91.24
50774;BME280;36745;48.544;8.918;2023-05-01T16:59:23;97180.34;;;13.85;92.19
50774;BME280;36745;48.544;8.918;2023-05-01T17:02:43;97187.09;;;13.94;90.69
50774;BME280;36745;48.544;8.918;2023-05-01T17:06:07;97176.34;;;13.86;91.34
50774;BME280;36745;48.544;8.918;2023-05-01T17:09:27;97163.75;;;13.67;93.51
50774;BME280;36745;48.544;8.918;2023-05-01T17:12:47;97158.22;;;13.67;94.13
50774;BME280;36745;48.544;8.918;2023-05-01T17:16:07;97171.16;;;13.61;95.30
50774;BME280;36745;48.544;8.918;2023-05-01T17:19:27;97171.94;;;13.62;95.71
50774;BME280;36745;48.544;8.918;2023-05-01T17:22:47;97163.34;;;13.60;95.56
50774;BME280;36745;48.544;8.918;2023-05-01T17:26:07;97170.84;;;13.50;95.90
50774;BME280;36745;48.544;8.918;2023-05-01T17:29:27;97179.78;;;13.45;96.60
50774;BME280;36745;48.544;8.918;2023-05-01T17:32:47;97183.50;;;13.33;97.33
50774;BME280;36745;48.544;8.918;2023-05-01T17:36:06;97193.03;;;13.32;97.29
50774;BME280;36745;48.544;8.918;2023-05-01T17:39:26;97200.13;;;13.33;97.44
50774;BME280;36745;48.544;8.918;2023-05-01T17:42:46;97204.72;;;13.36;97.46
50774;BME280;36745;48.544;8.918;2023-05-01T17:46:06;97199.47;;;13.29;98.04
50774;BME280;36745;48.544;8.918;2023-05-01T17:49:26;97208.25;;;13.27;98.85
50774;BME280;36745;48.544;8.918;2023-05-01T17:52:46;97215.47;;;13.25;98.22
50774;BME280;36745;48.544;8.918;2023-05-01T17:56:06;97226.56;;;13.34;97.49
50774;BME280;36745;48.544;8.918;2023-05-01T17:59:26;97209.94;;;13.34;96.67
50774;BME280;36745;48.544;8.918;2023-05-01T18:02:48;97196.72;;;13.20;97.85
50774;BME280;36745;48.544;8.918;2023-05-01T18:06:08;97202.50;;;13.03;100.00
50774;BME280;36745;48.544;8.918;2023-05-01T18:09:28;97202.50;;;13.03;100.00
50774;BME280;36745;48.544;8.918;2023-05-01T18:12:48;97215.75;;;12.99;100.00
50774;BME280;36745;48.544;8.918;2023-05-01T18:16:08;97240.31;;;12.97;100.00
50774;BME280;36745;48.544;8.918;2023-05-01T18:19:29;97274.75;;;12.96;100.00
50774;BME280;36745;48.544;8.918;2023-05-01T18:22:49;97279.22;;;13.03;99.21